sensor_id;sensor_type;location;lat;lon;timestamp;P1;durP1;ratioP1;P2;durP2;ratioP2
53775;SDS011;44276;49.534;6.378;2024-02-26T00:00:38;1.13;;;0.28;;
53775;SDS011;44276;49.534;6.378;2024-02-26T00:03:07;3.45;;;1.00;;
53775;SDS011;44276;49.534;6.378;2024-02-26T00:05:35;0.55;;;0.40;;
53775;SDS011;44276;49.534;6.378;2024-02-26T00:08:05;1.45;;;0.43;;
53775;SDS011;44276;49.534;6.378;2024-02-26T00:10:34;1.10;;;0.77;;
53775;SDS011;44276;49.534;6.378;2024-02-26T00:13:04;0.52;;;0.35;;
53775;SDS011;44276;49.534;6.378;2024-02-26T00:15:32;1.00;;;0.20;;
53775;SDS011;44276;49.534;6.378;2024-02-26T00:18:01;1.48;;;0.63;;
53775;SDS011;44276;49.534;6.378;2024-02-26T00:20:30;0.88;;;0.50;;
53775;SDS011;44276;49.534;6.378;2024-02-26T00:22:58;1.17;;;0.30;;
53775;SDS011;44276;49.534;6.378;2024-02-26T00:25:26;1.35;;;0.63;;
53775;SDS011;44276;49.534;6.378;2024-02-26T00:27:55;1.95;;;0.43;;
53775;SDS011;44276;49.534;6.378;2024-02-26T00:30:25;1.02;;;0.57;;
53775;SDS011;44276;49.534;6.378;2024-02-26T00:32:53;1.40;;;0.77;;
53775;SDS011;44276;49.534;6.378;2024-02-26T00:35:22;1.85;;;0.95;;
53775;SDS011;44276;49.534;6.378;2024-02-26T00:37:50;1.88;;;0.50;;
53775;SDS011;44276;49.534;6.378;2024-02-26T00:40:18;1.77;;;0.60;;
53775;SDS011;44276;49.534;6.378;2024-02-26T00:42:46;0.60;;;0.43;;
53775;SDS011;44276;49.534;6.378;2024-02-26T00:45:14;0.95;;;0.52;;
53775;SDS011;44276;49.534;6.378;2024-02-26T00:47:44;0.63;;;0.50;;
53775;SDS011;44276;49.534;6.378;2024-02-26T00:50:14;0.50;;;0.40;;
53775;SDS011;44276;49.534;6.378;2024-02-26T00:52:43;0.98;;;0.60;;
53775;SDS011;44276;49.534;6.378;2024-02-26T00:55:11;1.25;;;0.88;;
53775;SDS011;44276;49.534;6.378;2024-02-26T00:57:39;2.22;;;0.57;;
53775;SDS011;44276;49.534;6.378;2024-02-26T01:00:08;0.60;;;0.57;;
53775;SDS011;44276;49.534;6.378;2024-02-26T01:02:37;2.00;;;0.98;;
53775;SDS011;44276;49.534;6.378;2024-02-26T01:05:07;1.35;;;0.75;;
53775;SDS011;44276;49.534;6.378;2024-02-26T01:07:36;2.67;;;0.30;;
53775;SDS011;44276;49.534;6.378;2024-02-26T01:10:06;0.80;;;0.57;;
53775;SDS011;44276;49.534;6.378;2024-02-26T01:12:35;1.50;;;0.65;;
53775;SDS011;44276;49.534;6.378;2024-02-26T01:15:04;1.50;;;0.47;;
53775;SDS011;44276;49.534;6.378;2024-02-26T01:17:33;0.90;;;0.60;;
53775;SDS011;44276;49.534;6.378;2024-02-26T01:20:02;1.42;;;0.60;;
53775;SDS011;44276;49.534;6.378;2024-02-26T01:22:33;0.98;;;0.50;;
53775;SDS011;44276;49.534;6.378;2024-02-26T01:25:01;1.52;;;0.38;;
53775;SDS011;44276;49.534;6.378;2024-02-26T01:27:30;0.65;;;0.40;;
53775;SDS011;44276;49.534;6.378;2024-02-26T01:29:58;1.90;;;0.60;;
53775;SDS011;44276;49.534;6.378;2024-02-26T01:32:26;1.70;;;0.50;;
53775;SDS011;44276;49.534;6.378;2024-02-26T01:34:54;0.38;;;0.35;;
53775;SDS011;44276;49.534;6.378;2024-02-26T01:37:23;1.40;;;0.50;;
53775;SDS011;44276;49.534;6.378;2024-02-26T01:39:51;0.80;;;0.63;;
53775;SDS011;44276;49.534;6.378;2024-02-26T01:42:20;1.45;;;0.60;;
53775;SDS011;44276;49.534;6.378;2024-02-26T01:44:48;0.30;;;0.30;;
53775;SDS011;44276;49.534;6.378;2024-02-26T01:47:16;0.52;;;0.40;;
53775;SDS011;44276;49.534;6.378;2024-02-26T01:49:45;0.30;;;0.30;;
53775;SDS011;44276;49.534;6.378;2024-02-26T01:52:14;1.23;;;0.43;;
53775;SDS011;44276;49.534;6.378;2024-02-26T01:54:44;0.70;;;0.43;;
53775;SDS011;44276;49.534;6.378;2024-02-26T01:57:15;1.05;;;0.60;;
53775;SDS011;44276;49.534;6.378;2024-02-26T01:59:44;1.08;;;0.45;;
53775;SDS011;44276;49.534;6.378;2024-02-26T02:02:13;2.70;;;0.82;;
53775;SDS011;44276;49.534;6.378;2024-02-26T02:04:43;1.02;;;0.80;;
53775;SDS011;44276;49.534;6.378;2024-02-26T02:07:13;2.90;;;0.90;;
53775;SDS011;44276;49.534;6.378;2024-02-26T02:09:41;0.82;;;0.47;;
53775;SDS011;44276;49.534;6.378;2024-02-26T02:12:09;1.60;;;0.75;;
53775;SDS011;44276;49.534;6.378;2024-02-26T02:14:40;1.35;;;0.70;;
53775;SDS011;44276;49.534;6.378;2024-02-26T02:17:08;1.98;;;0.80;;
53775;SDS011;44276;49.534;6.378;2024-02-26T02:19:37;3.67;;;0.50;;
53775;SDS011;44276;49.534;6.378;2024-02-26T02:22:07;1.10;;;0.63;;
53775;SDS011;44276;49.534;6.378;2024-02-26T02:24:35;1.60;;;0.77;;
53775;SDS011;44276;49.534;6.378;2024-02-26T02:27:03;2.78;;;0.68;;
53775;SDS011;44276;49.534;6.378;2024-02-26T02:29:32;0.85;;;0.60;;
53775;SDS011;44276;49.534;6.378;2024-02-26T02:32:01;3.67;;;0.70;;
53775;SDS011;44276;49.534;6.378;2024-02-26T02:34:32;0.40;;;0.40;;
53775;SDS011;44276;49.534;6.378;2024-02-26T02:37:01;1.55;;;0.50;;
53775;SDS011;44276;49.534;6.378;2024-02-26T02:39:30;0.98;;;0.65;;
53775;SDS011;44276;49.534;6.378;2024-02-26T02:41:59;0.85;;;0.50;;
53775;SDS011;44276;49.534;6.378;2024-02-26T02:44:27;1.13;;;0.60;;
53775;SDS011;44276;49.534;6.378;2024-02-26T02:46:55;1.67;;;0.85;;
53775;SDS011;44276;49.534;6.378;2024-02-26T02:49:23;1.48;;;0.82;;
53775;SDS011;44276;49.534;6.378;2024-02-26T02:51:52;1.13;;;0.60;;
53775;SDS011;44276;49.534;6.378;2024-02-26T02:54:21;0.95;;;0.40;;
53775;SDS011;44276;49.534;6.378;2024-02-26T02:56:51;0.47;;;0.43;;
53775;SDS011;44276;49.534;6.378;2024-02-26T02:59:19;0.73;;;0.43;;
53775;SDS011;44276;49.534;6.378;2024-02-26T03:01:47;4.10;;;0.50;;
53775;SDS011;44276;49.534;6.378;2024-02-26T03:04:16;1.50;;;1.10;;
53775;SDS011;44276;49.534;6.378;2024-02-26T03:06:44;1.52;;;0.50;;
53775;SDS011;44276;49.534;6.378;2024-02-26T03:09:12;0.47;;;0.40;;
53775;SDS011;44276;49.534;6.378;2024-02-26T03:11:40;0.50;;;0.50;;
53775;SDS011;44276;49.534;6.378;2024-02-26T03:14:11;0.57;;;0.57;;
53775;SDS011;44276;49.534;6.378;2024-02-26T03:16:39;0.55;;;0.55;;
53775;SDS011;44276;49.534;6.378;2024-02-26T03:19:08;1.02;;;0.75;;
53775;SDS011;44276;49.534;6.378;2024-02-26T03:21:36;0.75;;;0.60;;
53775;SDS011;44276;49.534;6.378;2024-02-26T03:24:04;0.73;;;0.73;;
53775;SDS011;44276;49.534;6.378;2024-02-26T03:26:35;0.52;;;0.45;;
53775;SDS011;44276;49.534;6.378;2024-02-26T03:29:03;1.92;;;1.10;;
53775;SDS011;44276;49.534;6.378;2024-02-26T03:31:33;1.10;;;0.63;;
53775;SDS011;44276;49.534;6.378;2024-02-26T03:34:01;0.80;;;0.80;;
53775;SDS011;44276;49.534;6.378;2024-02-26T03:36:29;2.80;;;1.13;;
53775;SDS011;44276;49.534;6.378;2024-02-26T03:38:58;0.77;;;0.60;;
53775;SDS011;44276;49.534;6.378;2024-02-26T03:41:26;1.38;;;0.93;;
53775;SDS011;44276;49.534;6.378;2024-02-26T03:43:54;1.52;;;0.75;;
53775;SDS011;44276;49.534;6.378;2024-02-26T03:46:29;1.05;;;0.60;;
53775;SDS011;44276;49.534;6.378;2024-02-26T03:48:59;0.77;;;0.45;;
53775;SDS011;44276;49.534;6.378;2024-02-26T03:51:27;1.42;;;0.75;;
53775;SDS011;44276;49.534;6.378;2024-02-26T03:53:58;1.80;;;0.80;;
53775;SDS011;44276;49.534;6.378;2024-02-26T03:56:26;1.08;;;0.63;;
53775;SDS011;44276;49.534;6.378;2024-02-26T03:58:54;0.57;;;0.57;;
53775;SDS011;44276;49.534;6.378;2024-02-26T04:01:22;1.38;;;0.57;;
53775;SDS011;44276;49.534;6.378;2024-02-26T04:03:51;1.23;;;0.68;;
53775;SDS011;44276;49.534;6.378;2024-02-26T04:06:21;1.95;;;0.57;;
53775;SDS011;44276;49.534;6.378;2024-02-26T04:08:49;1.55;;;0.65;;
53775;SDS011;44276;49.534;6.378;2024-02-26T04:11:17;0.30;;;0.30;;
53775;SDS011;44276;49.534;6.378;2024-02-26T04:13:46;1.05;;;0.70;;
53775;SDS011;44276;49.534;6.378;2024-02-26T04:16:15;0.60;;;0.57;;
53775;SDS011;44276;49.534;6.378;2024-02-26T04:18:44;0.65;;;0.65;;
53775;SDS011;44276;49.534;6.378;2024-02-26T04:21:12;1.45;;;0.57;;
53775;SDS011;44276;49.534;6.378;2024-02-26T04:23:42;3.95;;;0.90;;
53775;SDS011;44276;49.534;6.378;2024-02-26T04:26:10;1.60;;;0.60;;
53775;SDS011;44276;49.534;6.378;2024-02-26T04:28:38;0.60;;;0.43;;
53775;SDS011;44276;49.534;6.378;2024-02-26T04:31:07;5.70;;;0.73;;
53775;SDS011;44276;49.534;6.378;2024-02-26T04:33:35;1.25;;;0.60;;
53775;SDS011;44276;49.534;6.378;2024-02-26T04:36:03;0.57;;;0.40;;
53775;SDS011;44276;49.534;6.378;2024-02-26T04:38:32;0.35;;;0.30;;
53775;SDS011;44276;49.534;6.378;2024-02-26T04:41:02;0.40;;;0.35;;
53775;SDS011;44276;49.534;6.378;2024-02-26T04:43:30;1.35;;;0.80;;
53775;SDS011;44276;49.534;6.378;2024-02-26T04:45:58;0.98;;;0.70;;
53775;SDS011;44276;49.534;6.378;2024-02-26T04:48:27;1.25;;;0.45;;
53775;SDS011;44276;49.534;6.378;2024-02-26T04:50:55;2.95;;;0.90;;
53775;SDS011;44276;49.534;6.378;2024-02-26T04:53:23;0.80;;;0.45;;
53775;SDS011;44276;49.534;6.378;2024-02-26T04:55:52;1.35;;;0.60;;
53775;SDS011;44276;49.534;6.378;2024-02-26T04:58:21;1.92;;;0.60;;
53775;SDS011;44276;49.534;6.378;2024-02-26T05:00:49;1.08;;;0.90;;
53775;SDS011;44276;49.534;6.378;2024-02-26T05:03:17;2.20;;;0.80;;
53775;SDS011;44276;49.534;6.378;2024-02-26T05:05:46;0.50;;;0.30;;
53775;SDS011;44276;49.534;6.378;2024-02-26T05:08:14;0.90;;;0.50;;
53775;SDS011;44276;49.534;6.378;2024-02-26T05:10:42;2.78;;;0.85;;
53775;SDS011;44276;49.534;6.378;2024-02-26T05:13:13;1.77;;;0.95;;
53775;SDS011;44276;49.534;6.378;2024-02-26T05:15:45;2.80;;;0.90;;
53775;SDS011;44276;49.534;6.378;2024-02-26T05:18:15;2.40;;;1.02;;
53775;SDS011;44276;49.534;6.378;2024-02-26T05:20:44;1.08;;;0.80;;
53775;SDS011;44276;49.534;6.378;2024-02-26T05:23:12;3.13;;;0.57;;
53775;SDS011;44276;49.534;6.378;2024-02-26T05:25:40;1.23;;;0.60;;
53775;SDS011;44276;49.534;6.378;2024-02-26T05:28:08;1.55;;;0.90;;
53775;SDS011;44276;49.534;6.378;2024-02-26T05:30:37;2.03;;;0.93;;
53775;SDS011;44276;49.534;6.378;2024-02-26T05:33:07;1.75;;;0.75;;
53775;SDS011;44276;49.534;6.378;2024-02-26T05:35:36;0.80;;;0.40;;
53775;SDS011;44276;49.534;6.378;2024-02-26T05:38:04;1.00;;;0.80;;
53775;SDS011;44276;49.534;6.378;2024-02-26T05:40:32;0.80;;;0.70;;
53775;SDS011;44276;49.534;6.378;2024-02-26T05:43:00;1.10;;;0.85;;
53775;SDS011;44276;49.534;6.378;2024-02-26T05:45:28;1.58;;;0.85;;
53775;SDS011;44276;49.534;6.378;2024-02-26T05:47:57;1.17;;;0.70;;
53775;SDS011;44276;49.534;6.378;2024-02-26T05:50:27;1.73;;;0.93;;
53775;SDS011;44276;49.534;6.378;2024-02-26T05:52:55;1.58;;;0.85;;
53775;SDS011;44276;49.534;6.378;2024-02-26T05:55:23;6.07;;;2.08;;
53775;SDS011;44276;49.534;6.378;2024-02-26T05:57:52;2.05;;;1.67;;
53775;SDS011;44276;49.534;6.378;2024-02-26T06:00:20;2.58;;;1.88;;
53775;SDS011;44276;49.534;6.378;2024-02-26T06:02:48;1.17;;;0.60;;
53775;SDS011;44276;49.534;6.378;2024-02-26T06:05:17;2.30;;;1.10;;
53775;SDS011;44276;49.534;6.378;2024-02-26T06:07:46;2.28;;;0.90;;
53775;SDS011;44276;49.534;6.378;2024-02-26T06:10:14;1.38;;;0.88;;
53775;SDS011;44276;49.534;6.378;2024-02-26T06:12:43;1.85;;;0.80;;
53775;SDS011;44276;49.534;6.378;2024-02-26T06:15:11;2.22;;;1.15;;
53775;SDS011;44276;49.534;6.378;2024-02-26T06:17:39;2.13;;;0.95;;
53775;SDS011;44276;49.534;6.378;2024-02-26T06:20:08;2.25;;;1.20;;
53775;SDS011;44276;49.534;6.378;2024-02-26T06:22:39;3.47;;;1.10;;
53775;SDS011;44276;49.534;6.378;2024-02-26T06:25:09;3.53;;;1.10;;
53775;SDS011;44276;49.534;6.378;2024-02-26T06:27:37;2.03;;;1.13;;
53775;SDS011;44276;49.534;6.378;2024-02-26T06:30:06;1.77;;;1.10;;
53775;SDS011;44276;49.534;6.378;2024-02-26T06:32:37;3.22;;;1.35;;
53775;SDS011;44276;49.534;6.378;2024-02-26T06:35:05;2.20;;;1.38;;
53775;SDS011;44276;49.534;6.378;2024-02-26T06:37:36;1.60;;;1.23;;
53775;SDS011;44276;49.534;6.378;2024-02-26T06:40:05;1.35;;;0.73;;
53775;SDS011;44276;49.534;6.378;2024-02-26T06:42:36;1.73;;;0.82;;
53775;SDS011;44276;49.534;6.378;2024-02-26T06:45:05;1.42;;;0.90;;
53775;SDS011;44276;49.534;6.378;2024-02-26T06:47:34;0.73;;;0.73;;
53775;SDS011;44276;49.534;6.378;2024-02-26T06:50:02;1.13;;;0.90;;
53775;SDS011;44276;49.534;6.378;2024-02-26T06:52:31;0.85;;;0.73;;
53775;SDS011;44276;49.534;6.378;2024-02-26T06:54:59;1.35;;;0.63;;
53775;SDS011;44276;49.534;6.378;2024-02-26T06:57:28;1.60;;;1.00;;
53775;SDS011;44276;49.534;6.378;2024-02-26T06:59:57;1.17;;;0.93;;
53775;SDS011;44276;49.534;6.378;2024-02-26T07:02:26;1.27;;;0.82;;
53775;SDS011;44276;49.534;6.378;2024-02-26T07:04:56;1.83;;;1.10;;
53775;SDS011;44276;49.534;6.378;2024-02-26T07:07:24;1.70;;;0.88;;
53775;SDS011;44276;49.534;6.378;2024-02-26T07:09:54;2.53;;;1.08;;
53775;SDS011;44276;49.534;6.378;2024-02-26T07:12:23;1.65;;;1.20;;
53775;SDS011;44276;49.534;6.378;2024-02-26T07:14:51;2.00;;;1.38;;
53775;SDS011;44276;49.534;6.378;2024-02-26T07:17:20;2.95;;;1.75;;
53775;SDS011;44276;49.534;6.378;2024-02-26T07:19:49;3.42;;;1.70;;
53775;SDS011;44276;49.534;6.378;2024-02-26T07:22:17;2.95;;;1.70;;
53775;SDS011;44276;49.534;6.378;2024-02-26T07:24:45;2.85;;;1.92;;
53775;SDS011;44276;49.534;6.378;2024-02-26T07:27:13;2.97;;;2.40;;
53775;SDS011;44276;49.534;6.378;2024-02-26T07:29:44;1.70;;;1.30;;
53775;SDS011;44276;49.534;6.378;2024-02-26T07:32:13;2.60;;;1.88;;
53775;SDS011;44276;49.534;6.378;2024-02-26T07:34:43;2.95;;;1.95;;
53775;SDS011;44276;49.534;6.378;2024-02-26T07:37:11;2.50;;;1.95;;
53775;SDS011;44276;49.534;6.378;2024-02-26T07:39:39;3.38;;;2.60;;
53775;SDS011;44276;49.534;6.378;2024-02-26T07:42:08;2.10;;;1.77;;
53775;SDS011;44276;49.534;6.378;2024-02-26T07:44:36;3.42;;;2.00;;
53775;SDS011;44276;49.534;6.378;2024-02-26T07:47:04;2.30;;;1.90;;
53775;SDS011;44276;49.534;6.378;2024-02-26T07:49:33;3.50;;;2.10;;
53775;SDS011;44276;49.534;6.378;2024-02-26T07:52:06;2.53;;;1.85;;
53775;SDS011;44276;49.534;6.378;2024-02-26T07:54:34;2.67;;;2.15;;
53775;SDS011;44276;49.534;6.378;2024-02-26T07:57:02;3.55;;;2.60;;
53775;SDS011;44276;49.534;6.378;2024-02-26T07:59:32;4.57;;;2.72;;
53775;SDS011;44276;49.534;6.378;2024-02-26T08:02:00;3.72;;;2.60;;
53775;SDS011;44276;49.534;6.378;2024-02-26T08:04:29;4.25;;;2.72;;
53775;SDS011;44276;49.534;6.378;2024-02-26T08:06:58;7.78;;;2.80;;
53775;SDS011;44276;49.534;6.378;2024-02-26T08:09:28;5.70;;;3.08;;
53775;SDS011;44276;49.534;6.378;2024-02-26T08:11:56;3.55;;;2.70;;
53775;SDS011;44276;49.534;6.378;2024-02-26T08:14:24;6.28;;;3.17;;
53775;SDS011;44276;49.534;6.378;2024-02-26T08:16:52;5.72;;;3.88;;
53775;SDS011;44276;49.534;6.378;2024-02-26T08:19:20;3.60;;;2.60;;
53775;SDS011;44276;49.534;6.378;2024-02-26T08:21:49;6.25;;;3.45;;
53775;SDS011;44276;49.534;6.378;2024-02-26T08:24:17;2.42;;;2.08;;
53775;SDS011;44276;49.534;6.378;2024-02-26T08:26:47;1.85;;;1.55;;
53775;SDS011;44276;49.534;6.378;2024-02-26T08:29:15;4.40;;;1.58;;
53775;SDS011;44276;49.534;6.378;2024-02-26T08:31:43;2.00;;;1.77;;
53775;SDS011;44276;49.534;6.378;2024-02-26T08:34:11;2.15;;;1.70;;
53775;SDS011;44276;49.534;6.378;2024-02-26T08:36:40;4.80;;;1.60;;
53775;SDS011;44276;49.534;6.378;2024-02-26T08:39:09;5.10;;;2.63;;
53775;SDS011;44276;49.534;6.378;2024-02-26T08:41:40;3.42;;;2.50;;
53775;SDS011;44276;49.534;6.378;2024-02-26T08:44:10;3.38;;;2.38;;
53775;SDS011;44276;49.534;6.378;2024-02-26T08:46:38;5.55;;;2.88;;
53775;SDS011;44276;49.534;6.378;2024-02-26T08:49:06;6.90;;;3.05;;
53775;SDS011;44276;49.534;6.378;2024-02-26T08:51:34;5.85;;;3.42;;
53775;SDS011;44276;49.534;6.378;2024-02-26T08:54:08;23.30;;;3.67;;
53775;SDS011;44276;49.534;6.378;2024-02-26T08:56:36;5.10;;;3.53;;
53775;SDS011;44276;49.534;6.378;2024-02-26T08:59:04;5.72;;;2.45;;
53775;SDS011;44276;49.534;6.378;2024-02-26T09:01:34;7.18;;;3.25;;
53775;SDS011;44276;49.534;6.378;2024-02-26T09:04:02;4.68;;;3.10;;
53775;SDS011;44276;49.534;6.378;2024-02-26T09:06:30;2.95;;;2.33;;
53775;SDS011;44276;49.534;6.378;2024-02-26T09:08:59;3.72;;;2.75;;
53775;SDS011;44276;49.534;6.378;2024-02-26T09:11:27;3.70;;;2.30;;
53775;SDS011;44276;49.534;6.378;2024-02-26T09:13:55;3.45;;;2.75;;
53775;SDS011;44276;49.534;6.378;2024-02-26T09:16:24;4.30;;;2.97;;
53775;SDS011;44276;49.534;6.378;2024-02-26T09:18:53;7.53;;;2.78;;
53775;SDS011;44276;49.534;6.378;2024-02-26T09:21:22;4.47;;;3.33;;
53775;SDS011;44276;49.534;6.378;2024-02-26T09:23:51;3.80;;;2.90;;
53775;SDS011;44276;49.534;6.378;2024-02-26T09:26:20;8.38;;;2.90;;
53775;SDS011;44276;49.534;6.378;2024-02-26T09:28:48;4.90;;;3.08;;
53775;SDS011;44276;49.534;6.378;2024-02-26T09:31:17;4.20;;;2.72;;
53775;SDS011;44276;49.534;6.378;2024-02-26T09:33:45;3.55;;;2.50;;
53775;SDS011;44276;49.534;6.378;2024-02-26T09:36:15;3.47;;;1.70;;
53775;SDS011;44276;49.534;6.378;2024-02-26T09:38:43;2.72;;;1.88;;
53775;SDS011;44276;49.534;6.378;2024-02-26T09:41:25;5.28;;;2.10;;
53775;SDS011;44276;49.534;6.378;2024-02-26T09:43:56;3.70;;;2.05;;
53775;SDS011;44276;49.534;6.378;2024-02-26T09:46:26;2.58;;;1.98;;
53775;SDS011;44276;49.534;6.378;2024-02-26T09:48:55;2.75;;;1.52;;
53775;SDS011;44276;49.534;6.378;2024-02-26T09:51:26;2.22;;;1.88;;
53775;SDS011;44276;49.534;6.378;2024-02-26T09:53:55;3.03;;;1.80;;
53775;SDS011;44276;49.534;6.378;2024-02-26T09:56:30;1.70;;;1.60;;
53775;SDS011;44276;49.534;6.378;2024-02-26T09:58:59;1.75;;;1.58;;
53775;SDS011;44276;49.534;6.378;2024-02-26T10:01:32;5.18;;;2.17;;
53775;SDS011;44276;49.534;6.378;2024-02-26T10:04:02;2.42;;;1.42;;
53775;SDS011;44276;49.534;6.378;2024-02-26T10:06:33;3.25;;;1.48;;
53775;SDS011;44276;49.534;6.378;2024-02-26T10:09:04;4.57;;;1.58;;
53775;SDS011;44276;49.534;6.378;2024-02-26T10:11:38;1.58;;;1.20;;
53775;SDS011;44276;49.534;6.378;2024-02-26T10:14:09;2.50;;;1.20;;
53775;SDS011;44276;49.534;6.378;2024-02-26T10:16:38;1.95;;;1.40;;
53775;SDS011;44276;49.534;6.378;2024-02-26T10:19:07;2.00;;;1.13;;
53775;SDS011;44276;49.534;6.378;2024-02-26T10:21:38;3.28;;;1.30;;
53775;SDS011;44276;49.534;6.378;2024-02-26T10:24:09;1.40;;;1.30;;
53775;SDS011;44276;49.534;6.378;2024-02-26T10:26:45;0.88;;;0.80;;
53775;SDS011;44276;49.534;6.378;2024-02-26T10:29:13;1.70;;;1.10;;
53775;SDS011;44276;49.534;6.378;2024-02-26T10:31:42;4.22;;;1.50;;
53775;SDS011;44276;49.534;6.378;2024-02-26T10:34:10;1.55;;;0.98;;
53775;SDS011;44276;49.534;6.378;2024-02-26T10:36:40;1.35;;;0.90;;
53775;SDS011;44276;49.534;6.378;2024-02-26T10:39:19;1.33;;;0.93;;
53775;SDS011;44276;49.534;6.378;2024-02-26T10:41:48;3.63;;;0.90;;
53775;SDS011;44276;49.534;6.378;2024-02-26T10:44:17;4.00;;;1.10;;
53775;SDS011;44276;49.534;6.378;2024-02-26T10:46:46;1.15;;;0.80;;
53775;SDS011;44276;49.534;6.378;2024-02-26T10:49:16;3.38;;;1.88;;
53775;SDS011;44276;49.534;6.378;2024-02-26T10:51:51;1.40;;;1.13;;
53775;SDS011;44276;49.534;6.378;2024-02-26T10:54:24;5.53;;;2.05;;
53775;SDS011;44276;49.534;6.378;2024-02-26T10:56:56;2.40;;;1.40;;
53775;SDS011;44276;49.534;6.378;2024-02-26T10:59:27;3.53;;;1.30;;
53775;SDS011;44276;49.534;6.378;2024-02-26T11:01:56;2.50;;;1.52;;
53775;SDS011;44276;49.534;6.378;2024-02-26T11:04:26;1.38;;;1.15;;
53775;SDS011;44276;49.534;6.378;2024-02-26T11:06:57;1.58;;;1.25;;
53775;SDS011;44276;49.534;6.378;2024-02-26T11:09:27;2.35;;;1.20;;
53775;SDS011;44276;49.534;6.378;2024-02-26T11:11:56;4.97;;;1.65;;
53775;SDS011;44276;49.534;6.378;2024-02-26T11:14:26;1.42;;;1.10;;
53775;SDS011;44276;49.534;6.378;2024-02-26T11:16:57;3.20;;;1.38;;
53775;SDS011;44276;49.534;6.378;2024-02-26T11:19:27;1.50;;;1.15;;
53775;SDS011;44276;49.534;6.378;2024-02-26T11:22:04;4.15;;;1.92;;
53775;SDS011;44276;49.534;6.378;2024-02-26T11:24:46;0.77;;;0.68;;
53775;SDS011;44276;49.534;6.378;2024-02-26T11:27:15;1.25;;;0.98;;
53775;SDS011;44276;49.534;6.378;2024-02-26T11:29:47;3.53;;;1.10;;
53775;SDS011;44276;49.534;6.378;2024-02-26T11:32:19;4.72;;;1.13;;
53775;SDS011;44276;49.534;6.378;2024-02-26T11:34:48;2.28;;;1.13;;
53775;SDS011;44276;49.534;6.378;2024-02-26T11:37:18;1.83;;;1.10;;
53775;SDS011;44276;49.534;6.378;2024-02-26T11:39:48;2.00;;;0.95;;
53775;SDS011;44276;49.534;6.378;2024-02-26T11:42:22;1.55;;;1.23;;
53775;SDS011;44276;49.534;6.378;2024-02-26T11:44:52;2.08;;;1.30;;
53775;SDS011;44276;49.534;6.378;2024-02-26T11:47:22;1.00;;;0.52;;
53775;SDS011;44276;49.534;6.378;2024-02-26T11:49:51;1.75;;;0.93;;
53775;SDS011;44276;49.534;6.378;2024-02-26T11:52:21;3.13;;;1.02;;
53775;SDS011;44276;49.534;6.378;2024-02-26T11:54:50;1.05;;;0.70;;
53775;SDS011;44276;49.534;6.378;2024-02-26T11:57:20;2.03;;;0.90;;
53775;SDS011;44276;49.534;6.378;2024-02-26T11:59:51;1.25;;;0.80;;
53775;SDS011;44276;49.534;6.378;2024-02-26T12:05:11;1.15;;;0.88;;
53775;SDS011;44276;49.534;6.378;2024-02-26T12:07:47;0.85;;;0.50;;
53775;SDS011;44276;49.534;6.378;2024-02-26T12:10:22;1.20;;;0.95;;
53775;SDS011;44276;49.534;6.378;2024-02-26T12:12:59;0.95;;;0.60;;
53775;SDS011;44276;49.534;6.378;2024-02-26T12:15:32;3.00;;;1.20;;
53775;SDS011;44276;49.534;6.378;2024-02-26T12:18:05;2.40;;;1.08;;
53775;SDS011;44276;49.534;6.378;2024-02-26T12:20:36;2.13;;;0.90;;
53775;SDS011;44276;49.534;6.378;2024-02-26T12:23:06;1.83;;;0.90;;
53775;SDS011;44276;49.534;6.378;2024-02-26T12:25:34;2.15;;;0.82;;
53775;SDS011;44276;49.534;6.378;2024-02-26T12:28:02;6.25;;;1.00;;
53775;SDS011;44276;49.534;6.378;2024-02-26T12:30:31;1.73;;;1.08;;
53775;SDS011;44276;49.534;6.378;2024-02-26T12:33:00;1.60;;;0.93;;
53775;SDS011;44276;49.534;6.378;2024-02-26T12:35:29;1.83;;;1.63;;
53775;SDS011;44276;49.534;6.378;2024-02-26T12:37:58;2.67;;;1.38;;
53775;SDS011;44276;49.534;6.378;2024-02-26T12:40:28;4.05;;;1.50;;
53775;SDS011;44276;49.534;6.378;2024-02-26T12:42:57;2.80;;;1.13;;
53775;SDS011;44276;49.534;6.378;2024-02-26T12:45:25;2.53;;;1.42;;
53775;SDS011;44276;49.534;6.378;2024-02-26T12:47:54;2.63;;;1.30;;
53775;SDS011;44276;49.534;6.378;2024-02-26T12:50:23;5.18;;;1.33;;
53775;SDS011;44276;49.534;6.378;2024-02-26T12:52:51;2.63;;;1.40;;
53775;SDS011;44276;49.534;6.378;2024-02-26T12:55:21;2.13;;;1.65;;
53775;SDS011;44276;49.534;6.378;2024-02-26T12:57:51;5.50;;;1.13;;
53775;SDS011;44276;49.534;6.378;2024-02-26T13:00:22;1.27;;;0.90;;
53775;SDS011;44276;49.534;6.378;2024-02-26T13:02:54;3.33;;;1.15;;
53775;SDS011;44276;49.534;6.378;2024-02-26T13:05:24;1.00;;;0.60;;
53775;SDS011;44276;49.534;6.378;2024-02-26T13:07:52;2.25;;;0.85;;
53775;SDS011;44276;49.534;6.378;2024-02-26T13:10:21;1.73;;;0.65;;
53775;SDS011;44276;49.534;6.378;2024-02-26T13:12:52;0.45;;;0.43;;
53775;SDS011;44276;49.534;6.378;2024-02-26T13:15:21;0.93;;;0.73;;
53775;SDS011;44276;49.534;6.378;2024-02-26T13:17:49;2.40;;;0.43;;
53775;SDS011;44276;49.534;6.378;2024-02-26T13:20:26;2.15;;;0.85;;
53775;SDS011;44276;49.534;6.378;2024-02-26T13:22:59;2.00;;;0.73;;
53775;SDS011;44276;49.534;6.378;2024-02-26T13:25:29;0.85;;;0.63;;
53775;SDS011;44276;49.534;6.378;2024-02-26T13:28:08;0.80;;;0.60;;
53775;SDS011;44276;49.534;6.378;2024-02-26T13:30:49;1.73;;;0.82;;
53775;SDS011;44276;49.534;6.378;2024-02-26T13:33:19;1.65;;;0.80;;
53775;SDS011;44276;49.534;6.378;2024-02-26T13:35:49;7.60;;;5.03;;
53775;SDS011;44276;49.534;6.378;2024-02-26T13:38:18;2.05;;;0.68;;
53775;SDS011;44276;49.534;6.378;2024-02-26T13:40:47;2.67;;;0.95;;
53775;SDS011;44276;49.534;6.378;2024-02-26T13:43:16;1.20;;;0.60;;
53775;SDS011;44276;49.534;6.378;2024-02-26T13:45:45;4.07;;;0.50;;
53775;SDS011;44276;49.534;6.378;2024-02-26T13:48:14;2.10;;;0.73;;
53775;SDS011;44276;49.534;6.378;2024-02-26T13:50:43;1.33;;;0.77;;
53775;SDS011;44276;49.534;6.378;2024-02-26T13:53:13;2.08;;;0.52;;
53775;SDS011;44276;49.534;6.378;2024-02-26T13:55:41;1.58;;;0.80;;
53775;SDS011;44276;49.534;6.378;2024-02-26T13:58:11;1.10;;;0.50;;
53775;SDS011;44276;49.534;6.378;2024-02-26T14:00:42;2.75;;;0.50;;
53775;SDS011;44276;49.534;6.378;2024-02-26T14:03:11;2.25;;;0.73;;
53775;SDS011;44276;49.534;6.378;2024-02-26T14:05:39;1.15;;;0.85;;
53775;SDS011;44276;49.534;6.378;2024-02-26T14:08:13;1.42;;;0.90;;
53775;SDS011;44276;49.534;6.378;2024-02-26T14:10:42;0.60;;;0.40;;
53775;SDS011;44276;49.534;6.378;2024-02-26T14:13:10;1.15;;;0.52;;
53775;SDS011;44276;49.534;6.378;2024-02-26T14:15:39;1.25;;;0.52;;
53775;SDS011;44276;49.534;6.378;2024-02-26T14:18:08;1.77;;;0.68;;
53775;SDS011;44276;49.534;6.378;2024-02-26T14:20:37;0.85;;;0.30;;
53775;SDS011;44276;49.534;6.378;2024-02-26T14:23:06;0.65;;;0.28;;
53775;SDS011;44276;49.534;6.378;2024-02-26T14:25:35;2.30;;;0.45;;
53775;SDS011;44276;49.534;6.378;2024-02-26T14:28:04;1.38;;;0.73;;
53775;SDS011;44276;49.534;6.378;2024-02-26T14:30:36;1.30;;;0.35;;
53775;SDS011;44276;49.534;6.378;2024-02-26T14:33:04;0.35;;;0.30;;
53775;SDS011;44276;49.534;6.378;2024-02-26T14:35:34;0.82;;;0.30;;
53775;SDS011;44276;49.534;6.378;2024-02-26T14:38:02;0.85;;;0.30;;
53775;SDS011;44276;49.534;6.378;2024-02-26T14:40:31;0.40;;;0.32;;
53775;SDS011;44276;49.534;6.378;2024-02-26T14:42:59;0.60;;;0.43;;
53775;SDS011;44276;49.534;6.378;2024-02-26T14:45:27;0.40;;;0.30;;
53775;SDS011;44276;49.534;6.378;2024-02-26T14:47:55;0.65;;;0.65;;
53775;SDS011;44276;49.534;6.378;2024-02-26T14:50:23;2.17;;;0.40;;
53775;SDS011;44276;49.534;6.378;2024-02-26T14:52:53;1.45;;;0.57;;
53775;SDS011;44276;49.534;6.378;2024-02-26T14:55:21;5.65;;;1.30;;
53775;SDS011;44276;49.534;6.378;2024-02-26T14:57:49;2.05;;;0.65;;
53775;SDS011;44276;49.534;6.378;2024-02-26T15:00:18;2.47;;;0.77;;
53775;SDS011;44276;49.534;6.378;2024-02-26T15:02:46;4.40;;;0.80;;